Time;durP1;ratioP1;P1;durP2;ratioP2;P2;SDS_P1;SDS_P2;PMS_P1;PMS_P2;Temp;Humidity;BMP_temperature;BMP_pressure;BME280_temperature;BME280_humidity;BME280_pressure;Samples;Min_cycle;Max_cycle;Signal;HPM_P1;HPM_P2
2021/09/30 00:00:27;;;;;;;2.35;1.00;;;12.00;94.90;;;;;;6302250;22;19999;-77
2021/09/30 00:02:52;;;;;;;1.98;1.00;;;12.00;94.90;;;;;;6301008;22;20008;-77
2021/09/30 00:05:18;;;;;;;0.95;0.80;;;12.00;94.90;;;;;;6298809;22;20442;-76
2021/09/30 00:07:44;;;;;;;1.42;0.90;;;12.00;95.00;;;;;;6297501;22;20003;-76
2021/09/30 00:10:16;;;;;;;3.00;0.90;;;11.90;94.90;;;;;;6298675;22;20000;-76
2021/09/30 00:12:46;;;;;;;2.30;1.13;;;11.90;95.00;;;;;;6298448;22;20007;-76
2021/09/30 00:15:17;;;;;;;1.98;1.30;;;11.90;94.90;;;;;;6299616;22;19999;-77
2021/09/30 00:18:07;;;;;;;1.90;0.77;;;11.90;95.00;;;;;;6298235;22;20428;-77
2021/09/30 00:34:22;;;;;;;1.23;1.13;;;11.80;95.40;;;;;;6300853;22;20737;-78
2021/09/30 00:39:58;;;;;;;4.20;1.08;;;11.70;95.30;;;;;;6298338;22;20014;-78
2021/09/30 00:42:25;;;;;;;3.38;1.42;;;11.70;95.40;;;;;;6297815;22;20003;-78
2021/09/30 00:47:44;;;;;;;1.15;0.95;;;11.70;95.30;;;;;;6298347;22;20030;-78
2021/09/30 00:50:22;;;;;;;2.67;1.30;;;11.60;95.40;;;;;;6301794;22;20003;-77
2021/09/30 00:53:29;;;;;;;1.45;0.98;;;11.60;95.50;;;;;;6299932;22;20006;-77
2021/09/30 00:55:56;;;;;;;1.90;1.67;;;11.60;95.40;;;;;;6295654;22;20412;-77
2021/09/30 01:18:22;;;;;;;1.15;1.05;;;11.60;95.60;;;;;;6299073;22;20035;-77
2021/09/30 01:25:58;;;;;;;1.65;1.00;;;11.40;95.70;;;;;;6301071;22;20034;-78
2021/09/30 01:33:39;;;;;;;1.80;1.02;;;11.20;96.00;;;;;;6303881;22;20014;-77
2021/09/30 01:58:12;;;;;;;1.70;0.90;;;11.10;96.10;;;;;;6299907;22;20010;-76
2021/09/30 02:20:32;;;;;;;1.10;0.63;;;10.90;96.00;;;;;;6302665;22;20017;-76
2021/09/30 02:23:15;;;;;;;1.40;0.90;;;11.00;96.20;;;;;;6302713;22;19995;-75
2021/09/30 02:26:04;;;;;;;;;;;11.00;96.00;;;;;;6300765;22;20007;-76
2021/09/30 02:39:45;;;;;;;2.58;0.80;;;11.00;96.10;;;;;;6301638;22;20010;-77
2021/09/30 02:58:49;;;;;;;1.70;1.00;;;10.90;96.00;;;;;;6301646;22;20065;-76
2021/09/30 03:01:21;;;;;;;2.25;1.00;;;10.90;96.20;;;;;;6302177;22;20057;-77
2021/09/30 03:03:47;;;;;;;;;;;10.90;95.90;;;;;;6303091;22;20060;-77
2021/09/30 03:06:13;;;;;;;1.25;1.10;;;10.90;96.10;;;;;;6273958;22;19986;-76
2021/09/30 03:08:48;;;;;;;3.00;0.80;;;10.80;96.10;;;;;;6300683;22;20027;-77
2021/09/30 03:11:16;;;;;;;2.53;1.35;;;10.80;96.10;;;;;;6301315;22;20003;-78
2021/09/30 03:13:44;;;;;;;4.05;1.20;;;10.80;96.00;;;;;;6303711;22;20010;-78
2021/09/30 03:16:16;;;;;;;1.63;0.85;;;10.90;95.90;;;;;;6305097;22;20084;-77
2021/09/30 03:23:57;;;;;;;3.08;1.67;;;10.90;96.00;;;;;;6300212;22;20188;-77
2021/09/30 03:26:25;;;;;;;2.63;0.90;;;10.90;95.90;;;;;;6298338;22;20105;-77
2021/09/30 03:28:52;;;;;;;3.13;1.08;;;10.90;95.90;;;;;;6300059;22;20256;-76
2021/09/30 03:31:18;;;;;;;3.50;1.00;;;10.90;95.90;;;;;;6302492;22;19999;-77
2021/09/30 03:33:46;;;;;;;1.65;1.13;;;10.90;95.90;;;;;;6301938;22;20018;-77
2021/09/30 03:36:12;;;;;;;1.30;1.00;;;11.00;95.90;;;;;;6298348;22;20011;-76
2021/09/30 03:38:38;;;;;;;1.48;0.90;;;10.90;95.90;;;;;;6299714;22;20124;-77
2021/09/30 03:41:04;;;;;;;1.40;1.10;;;10.90;95.80;;;;;;6299569;22;20011;-76
2021/09/30 03:43:29;;;;;;;4.82;1.70;;;10.90;95.90;;;;;;6299686;22;19999;-77
2021/09/30 03:45:55;;;;;;;1.63;1.08;;;10.90;96.00;;;;;;6300031;22;20022;-77
2021/09/30 03:48:21;;;;;;;3.33;0.98;;;10.90;95.90;;;;;;6298028;22;20780;-76
2021/09/30 03:51:02;;;;;;;2.78;0.95;;;10.90;95.80;;;;;;6298978;22;20003;-76
2021/09/30 03:56:21;;;;;;;1.25;0.70;;;10.90;96.10;;;;;;6310027;22;20144;-76
2021/09/30 03:59:18;;;;;;;1.08;0.75;;;10.90;95.90;;;;;;6299604;22;20030;-77
2021/09/30 04:01:44;;;;;;;2.80;0.80;;;10.80;96.00;;;;;;6302401;22;20003;-75
2021/09/30 04:04:09;;;;;;;2.80;0.85;;;10.80;95.90;;;;;;6301316;22;20007;-76
2021/09/30 04:06:35;;;;;;;2.88;0.98;;;10.70;96.00;;;;;;6300042;22;19999;-77
2021/09/30 04:09:01;;;;;;;3.72;1.27;;;10.80;96.10;;;;;;6299203;22;20039;-78
2021/09/30 04:11:26;;;;;;;1.67;1.17;;;10.80;96.40;;;;;;6301495;22;20356;-78
2021/09/30 04:13:52;;;;;;;1.05;0.90;;;10.80;96.00;;;;;;6302291;22;20495;-76
2021/09/30 04:16:17;;;;;;;1.38;1.10;;;10.80;95.90;;;;;;6303152;22;20014;-77
2021/09/30 04:18:43;;;;;;;1.92;1.20;;;10.80;95.90;;;;;;6299990;22;20004;-76
2021/09/30 04:21:08;;;;;;;4.80;1.10;;;10.80;96.00;;;;;;6298495;22;20321;-78
2021/09/30 04:23:33;;;;;;;1.27;1.17;;;10.80;96.00;;;;;;6299915;22;20069;-78
2021/09/30 04:25:59;;;;;;;3.35;1.00;;;10.80;95.90;;;;;;6298120;22;19995;-78
2021/09/30 04:28:24;;;;;;;3.00;1.10;;;10.80;96.00;;;;;;6301359;22;19996;-78
2021/09/30 04:30:50;;;;;;;4.05;1.02;;;10.80;95.90;;;;;;6297540;22;20003;-78
2021/09/30 04:33:16;;;;;;;3.22;1.08;;;10.90;95.90;;;;;;6300108;22;20030;-77
2021/09/30 04:35:42;;;;;;;1.40;1.05;;;10.90;96.00;;;;;;6291919;22;20323;-77
2021/09/30 04:38:11;;;;;;;4.97;1.42;;;10.90;96.00;;;;;;6297044;22;20061;-77
2021/09/30 04:40:37;;;;;;;2.40;1.10;;;10.80;95.90;;;;;;6298028;22;20749;-77
2021/09/30 04:43:02;;;;;;;1.40;0.98;;;10.80;96.10;;;;;;6299704;22;19999;-79
2021/09/30 04:45:28;;;;;;;1.48;1.10;;;10.70;96.20;;;;;;6268441;22;20470;-76
2021/09/30 04:47:53;;;;;;;7.72;1.30;;;10.80;96.10;;;;;;6296167;22;20012;-77
2021/09/30 04:50:19;;;;;;;1.77;1.08;;;10.80;96.00;;;;;;6298725;22;20092;-77
2021/09/30 04:52:44;;;;;;;0.95;0.85;;;10.70;96.00;;;;;;6298168;22;19999;-77
2021/09/30 04:55:10;;;;;;;1.23;0.82;;;10.70;96.00;;;;;;6298728;22;20075;-76
2021/09/30 04:57:36;;;;;;;2.42;1.00;;;10.70;96.30;;;;;;6297270;22;20003;-76
2021/09/30 05:00:01;;;;;;;5.18;1.10;;;10.70;96.00;;;;;;6299120;22;19999;-76
2021/09/30 05:02:27;;;;;;;1.20;0.90;;;10.70;96.00;;;;;;6300231;22;19999;-76
2021/09/30 05:04:52;;;;;;;1.65;0.98;;;10.60;96.10;;;;;;6300117;22;20011;-76
2021/09/30 05:07:18;;;;;;;5.57;0.73;;;10.60;96.20;;;;;;6300490;22;20003;-75
2021/09/30 05:09:43;;;;;;;2.63;1.13;;;10.70;96.10;;;;;;6298573;22;20036;-76
2021/09/30 05:12:14;;;;;;;2.92;1.13;;;10.70;96.00;;;;;;6299871;22;19999;-77
2021/09/30 05:14:40;;;;;;;2.55;1.08;;;10.70;96.10;;;;;;6301068;22;20045;-77
2021/09/30 05:17:05;;;;;;;2.40;0.90;;;10.70;96.10;;;;;;6300621;22;19996;-77
2021/09/30 05:19:31;;;;;;;2.83;1.40;;;10.80;96.10;;;;;;6296968;22;20418;-77
2021/09/30 05:21:56;;;;;;;2.47;0.93;;;10.70;96.00;;;;;;6300339;22;20004;-77
2021/09/30 05:24:22;;;;;;;2.85;1.10;;;10.60;96.00;;;;;;6300158;22;20007;-76
2021/09/30 05:26:47;;;;;;;2.45;1.15;;;10.60;96.20;;;;;;6300045;22;20015;-77
2021/09/30 05:29:13;;;;;;;2.20;1.00;;;10.60;96.00;;;;;;6271808;22;20003;-76
2021/09/30 05:31:38;;;;;;;2.38;1.20;;;10.70;96.20;;;;;;6299968;22;19999;-76
2021/09/30 05:34:04;;;;;;;1.42;0.90;;;10.60;96.40;;;;;;6300685;22;20716;-76
2021/09/30 05:36:29;;;;;;;2.85;1.30;;;10.60;96.20;;;;;;6300181;22;20068;-76
2021/09/30 05:38:55;;;;;;;3.00;1.40;;;10.60;96.20;;;;;;6299592;22;19999;-76
2021/09/30 05:41:22;;;;;;;12.02;1.83;;;10.50;96.40;;;;;;6299557;22;20746;-77
2021/09/30 05:43:53;;;;;;;4.28;1.35;;;10.50;96.30;;;;;;6300945;22;19999;-77
2021/09/30 05:46:29;;;;;;;2.92;1.00;;;10.60;96.30;;;;;;6300534;22;20394;-76
2021/09/30 05:48:55;;;;;;;2.28;1.58;;;10.60;96.40;;;;;;6299656;22;20027;-76
2021/09/30 05:51:20;;;;;;;4.63;1.23;;;10.60;96.20;;;;;;6299526;22;20007;-76
2021/09/30 05:53:46;;;;;;;2.58;1.20;;;10.60;96.30;;;;;;6300509;22;20088;-77
2021/09/30 05:56:11;;;;;;;1.98;1.10;;;10.70;96.20;;;;;;6300604;22;20033;-77
2021/09/30 05:58:37;;;;;;;6.18;1.40;;;10.70;95.80;;;;;;6300007;22;20070;-77
2021/09/30 06:08:55;;;;;;;2.95;1.10;;;10.70;96.30;;;;;;6300348;22;20014;-78
2021/09/30 06:12:45;;;;;;;2.35;0.90;;;10.80;96.10;;;;;;6204067;23;20008;-78
2021/09/30 06:15:02;;;;;;;1.52;1.20;;;10.80;96.00;;;;;;6295694;22;20035;-77
2021/09/30 06:17:30;;;;;;;2.28;1.00;;;10.80;96.20;;;;;;6301439;22;19999;-77
2021/09/30 06:19:55;;;;;;;1.23;1.08;;;10.80;96.00;;;;;;6298390;22;20003;-76
2021/09/30 06:22:21;;;;;;;4.72;1.67;;;10.90;96.00;;;;;;6300641;22;20010;-76
2021/09/30 06:24:46;;;;;;;5.63;1.17;;;10.90;95.90;;;;;;6300596;22;20007;-76
2021/09/30 06:27:12;;;;;;;2.58;1.00;;;10.90;96.00;;;;;;6300382;22;20011;-76
2021/09/30 06:29:37;;;;;;;1.50;0.90;;;11.00;96.00;;;;;;6298275;22;20008;-77
2021/09/30 06:32:03;;;;;;;1.50;1.00;;;11.00;96.00;;;;;;6301210;22;20079;-77
2021/09/30 06:34:28;;;;;;;7.10;1.20;;;11.10;95.90;;;;;;6301166;22;20007;-77
2021/09/30 06:36:54;;;;;;;2.38;1.13;;;11.10;95.80;;;;;;6299815;22;19996;-77
2021/09/30 06:39:20;;;;;;;2.20;1.10;;;11.10;95.70;;;;;;6299375;22;20082;-78
2021/09/30 06:41:45;;;;;;;1.33;1.00;;;11.10;95.70;;;;;;6299381;22;20305;-77
2021/09/30 06:44:11;;;;;;;1.70;1.10;;;11.10;95.80;;;;;;6298709;22;20003;-76
2021/09/30 06:46:36;;;;;;;1.52;0.90;;;11.00;96.00;;;;;;6301927;22;20004;-77
2021/09/30 06:49:02;;;;;;;3.13;1.35;;;11.10;95.80;;;;;;6300872;22;20026;-77
2021/09/30 06:51:27;;;;;;;2.10;0.90;;;11.20;95.90;;;;;;6301240;22;20469;-77
2021/09/30 06:53:53;;;;;;;1.92;0.90;;;11.20;95.60;;;;;;6301326;22;20132;-77
2021/09/30 06:56:20;;;;;;;1.77;1.13;;;11.30;95.70;;;;;;6302168;22;19999;-77
2021/09/30 06:58:47;;;;;;;5.32;1.40;;;11.30;95.80;;;;;;6301466;22;20003;-77
2021/09/30 07:01:16;;;;;;;1.42;1.02;;;11.40;95.60;;;;;;6300706;22;20097;-77
2021/09/30 07:03:42;;;;;;;1.92;1.00;;;11.40;95.70;;;;;;6302028;22;20041;-79
2021/09/30 07:06:08;;;;;;;3.05;1.20;;;11.40;95.40;;;;;;6301124;22;20090;-77
2021/09/30 07:08:33;;;;;;;4.07;1.35;;;11.50;95.40;;;;;;6301402;22;20031;-77
2021/09/30 07:10:59;;;;;;;2.05;1.02;;;11.50;95.40;;;;;;6300583;22;20048;-76
2021/09/30 07:13:25;;;;;;;1.33;0.90;;;11.50;95.30;;;;;;6302007;22;19996;-78
2021/09/30 07:15:52;;;;;;;6.40;1.48;;;11.60;95.30;;;;;;6301755;22;20026;-76
2021/09/30 07:18:19;;;;;;;3.58;1.65;;;11.60;95.40;;;;;;6300685;22;19996;-76
2021/09/30 07:20:53;;;;;;;2.30;1.45;;;11.70;95.50;;;;;;6300076;22;20452;-76
2021/09/30 07:23:19;;;;;;;2.58;0.80;;;11.80;95.60;;;;;;6301956;22;20076;-76
2021/09/30 07:25:45;;;;;;;5.30;1.67;;;11.90;95.30;;;;;;6301115;22;20430;-77
2021/09/30 07:28:10;;;;;;;2.63;1.20;;;11.90;95.00;;;;;;6300661;22;20003;-79
2021/09/30 07:30:36;;;;;;;4.15;1.38;;;11.90;95.00;;;;;;6301304;22;20365;-76
2021/09/30 07:33:02;;;;;;;0.98;0.88;;;12.00;95.00;;;;;;6301557;22;20057;-77
2021/09/30 07:35:28;;;;;;;2.22;1.05;;;12.00;95.00;;;;;;6301953;22;20014;-77
2021/09/30 07:37:55;;;;;;;1.92;1.02;;;12.10;94.80;;;;;;6300539;22;20010;-76
2021/09/30 07:40:22;;;;;;;2.92;1.33;;;12.10;94.80;;;;;;6300258;22;20007;-78
2021/09/30 07:42:48;;;;;;;3.00;1.00;;;12.20;94.60;;;;;;6300601;22;20023;-77
2021/09/30 07:45:13;;;;;;;1.73;1.00;;;12.20;94.40;;;;;;6301875;22;20049;-77
2021/09/30 07:47:39;;;;;;;1.25;0.95;;;12.20;94.40;;;;;;6300676;22;20060;-78
2021/09/30 07:50:05;;;;;;;1.45;1.17;;;12.20;94.50;;;;;;6300792;22;20425;-76
2021/09/30 07:52:32;;;;;;;2.25;1.10;;;12.30;94.50;;;;;;6300763;22;20050;-77
2021/09/30 07:55:00;;;;;;;2.33;1.00;;;12.30;94.60;;;;;;6300860;22;20089;-76
2021/09/30 07:57:26;;;;;;;2.58;1.15;;;12.40;94.40;;;;;;6301155;22;20002;-77
2021/09/30 07:59:51;;;;;;;1.10;1.00;;;12.30;94.20;;;;;;6299634;22;19999;-77
2021/09/30 08:02:17;;;;;;;4.72;1.10;;;12.30;94.20;;;;;;6297120;22;20000;-77
2021/09/30 08:04:42;;;;;;;4.93;1.30;;;12.40;94.30;;;;;;6301638;22;20414;-77
2021/09/30 08:07:08;;;;;;;2.97;0.95;;;12.40;94.30;;;;;;6300569;22;20003;-77
2021/09/30 08:09:34;;;;;;;2.25;0.90;;;12.50;94.30;;;;;;6272904;22;20003;-78
2021/09/30 08:11:59;;;;;;;1.85;0.90;;;12.60;94.30;;;;;;6301027;22;20388;-78
2021/09/30 08:14:25;;;;;;;4.47;1.45;;;12.60;94.00;;;;;;6273758;22;20471;-78
2021/09/30 08:16:50;;;;;;;2.80;1.10;;;12.70;94.10;;;;;;6300168;22;20111;-76
2021/09/30 08:19:16;;;;;;;1.23;0.90;;;12.80;94.00;;;;;;6298555;22;19996;-77
2021/09/30 08:21:44;;;;;;;5.10;1.83;;;12.90;93.50;;;;;;6299486;22;20006;-76
2021/09/30 08:24:14;;;;;;;3.35;1.02;;;13.00;93.20;;;;;;6300506;22;20326;-77
2021/09/30 08:26:40;;;;;;;3.60;1.08;;;13.00;93.30;;;;;;6300133;22;20414;-78
2021/09/30 08:29:06;;;;;;;1.55;1.15;;;13.00;93.70;;;;;;6300290;22;20006;-76
2021/09/30 08:31:31;;;;;;;3.38;1.10;;;13.00;93.40;;;;;;6300561;22;20453;-76
2021/09/30 08:33:58;;;;;;;2.05;0.90;;;13.10;93.40;;;;;;6300939;22;20007;-77
2021/09/30 08:36:25;;;;;;;3.17;1.00;;;13.20;93.60;;;;;;6301155;22;20007;-76
2021/09/30 08:38:51;;;;;;;2.95;1.67;;;13.30;93.20;;;;;;6300245;22;20044;-77
2021/09/30 08:41:19;;;;;;;7.07;1.67;;;13.30;92.90;;;;;;6300328;22;20114;-78
2021/09/30 08:43:45;;;;;;;1.88;0.80;;;13.30;93.20;;;;;;6300690;22;20078;-77
2021/09/30 08:46:11;;;;;;;1.85;0.90;;;13.40;93.20;;;;;;6301228;22;20412;-77
2021/09/30 08:48:38;;;;;;;2.88;1.00;;;13.50;93.10;;;;;;6299907;22;20008;-77
2021/09/30 08:51:05;;;;;;;3.15;1.25;;;13.60;93.10;;;;;;6299630;22;20003;-78
2021/09/30 08:53:31;;;;;;;2.40;1.15;;;13.70;92.60;;;;;;6301012;22;20004;-78
2021/09/30 08:55:56;;;;;;;4.40;1.00;;;13.80;92.50;;;;;;6300812;22;20442;-78
2021/09/30 08:58:22;;;;;;;2.20;0.93;;;13.90;92.30;;;;;;6300378;22;20310;-76
2021/09/30 09:00:52;;;;;;;1.13;0.63;;;13.90;92.40;;;;;;6299869;22;20375;-77
2021/09/30 09:03:38;;;;;;;2.45;0.90;;;14.00;92.40;;;;;;6273484;22;20013;-78
2021/09/30 09:06:05;;;;;;;5.22;1.13;;;14.10;92.60;;;;;;6300606;22;20007;-78
2021/09/30 09:08:32;;;;;;;5.05;1.23;;;14.20;92.60;;;;;;6297493;22;20011;-77
2021/09/30 09:10:58;;;;;;;2.97;1.15;;;14.20;92.30;;;;;;6299315;22;20008;-76
2021/09/30 09:13:24;;;;;;;1.83;0.98;;;14.30;92.30;;;;;;6300260;22;20015;-77
2021/09/30 09:16:00;;;;;;;1.70;0.80;;;14.30;92.40;;;;;;6301310;22;20026;-77
2021/09/30 09:18:41;;;;;;;3.50;1.25;;;14.50;92.00;;;;;;6300187;22;20325;-77
2021/09/30 09:21:09;;;;;;;1.90;0.80;;;14.60;91.70;;;;;;6272298;22;20014;-77
2021/09/30 09:23:56;;;;;;;1.80;0.73;;;14.70;91.40;;;;;;6300498;22;20026;-77
2021/09/30 09:26:28;;;;;;;1.40;1.10;;;14.70;91.40;;;;;;6300704;22;20394;-76
2021/09/30 09:29:20;;;;;;;2.13;0.90;;;14.70;91.20;;;;;;6298280;22;20003;-77
2021/09/30 09:31:51;;;;;;;3.10;1.00;;;14.70;91.50;;;;;;6292810;22;20010;-77
2021/09/30 09:34:27;;;;;;;3.85;1.20;;;14.80;91.30;;;;;;6300433;22;20037;-77
2021/09/30 09:37:14;;;;;;;2.80;0.77;;;14.80;91.50;;;;;;6300567;22;20025;-77
2021/09/30 09:39:40;;;;;;;5.40;0.90;;;14.90;91.40;;;;;;6299207;22;19999;-77
2021/09/30 09:42:14;;;;;;;2.40;0.80;;;15.00;90.90;;;;;;6300356;22;20054;-78
2021/09/30 09:45:01;;;;;;;3.30;1.02;;;15.00;90.70;;;;;;6299804;22;20007;-77
2021/09/30 09:47:38;;;;;;;1.50;0.88;;;15.10;90.30;;;;;;6301334;22;20003;-77
2021/09/30 09:50:15;;;;;;;4.40;0.95;;;15.10;90.80;;;;;;6299271;22;20003;-77
2021/09/30 09:52:48;;;;;;;2.85;0.90;;;15.10;90.50;;;;;;6302344;22;19995;-78
2021/09/30 09:55:23;;;;;;;2.22;0.90;;;15.10;90.50;;;;;;6302527;22;20003;-77
2021/09/30 09:58:13;;;;;;;3.97;1.00;;;15.20;90.80;;;;;;6301783;22;19999;-77
2021/09/30 10:00:42;;;;;;;2.33;0.77;;;15.40;90.40;;;;;;6282694;22;20007;-77
2021/09/30 10:03:31;;;;;;;3.75;0.90;;;15.50;89.50;;;;;;6302615;22;20003;-77
2021/09/30 10:05:59;;;;;;;2.13;1.15;;;15.60;88.50;;;;;;6302462;22;20060;-77
2021/09/30 10:08:25;;;;;;;6.60;1.30;;;15.60;89.50;;;;;;6301450;22;20014;-77
2021/09/30 10:10:55;;;;;;;1.65;1.05;;;15.70;88.60;;;;;;6301027;22;20026;-77
2021/09/30 10:13:27;;;;;;;2.13;1.30;;;15.70;88.20;;;;;;6301843;22;20007;-77
2021/09/30 10:15:54;;;;;;;2.63;0.70;;;15.70;87.50;;;;;;6301783;22;20426;-77
2021/09/30 10:18:25;;;;;;;4.03;0.77;;;15.70;87.80;;;;;;6301527;22;20004;-77
2021/09/30 10:20:51;;;;;;;2.90;1.35;;;15.60;88.80;;;;;;6301476;22;20382;-77
2021/09/30 10:23:26;;;;;;;5.38;1.17;;;15.70;88.80;;;;;;6302360;22;20003;-77
2021/09/30 10:25:54;;;;;;;4.30;1.27;;;15.80;88.30;;;;;;6302398;22;20152;-77
2021/09/30 10:28:20;;;;;;;3.22;0.93;;;15.90;87.40;;;;;;6275466;22;20015;-77
2021/09/30 10:30:48;;;;;;;3.50;1.15;;;16.00;88.00;;;;;;6300700;22;20086;-77
2021/09/30 10:33:40;;;;;;;4.00;0.80;;;16.10;86.90;;;;;;6301921;22;20076;-76
2021/09/30 10:36:33;;;;;;;4.43;0.88;;;16.10;86.10;;;;;;6302119;22;20378;-77
2021/09/30 10:39:21;;;;;;;4.38;0.90;;;16.20;84.80;;;;;;6301054;22;20000;-77
2021/09/30 10:41:48;;;;;;;6.55;1.00;;;16.30;85.00;;;;;;6301677;22;20079;-77
2021/09/30 10:44:17;;;;;;;2.33;0.60;;;16.40;84.40;;;;;;6301689;22;20007;-78
2021/09/30 10:46:45;;;;;;;7.00;0.95;;;16.50;85.80;;;;;;6302576;22;20352;-76
2021/09/30 10:49:32;;;;;;;3.47;1.17;;;16.60;86.30;;;;;;6300612;22;20046;-78
2021/09/30 10:52:25;;;;;;;1.73;0.65;;;16.70;84.20;;;;;;6301803;22;20002;-78
2021/09/30 10:55:06;;;;;;;5.03;1.02;;;16.80;85.10;;;;;;6302268;22;20006;-77
2021/09/30 10:57:44;;;;;;;2.38;0.82;;;16.90;81.80;;;;;;6302285;22;20082;-77
2021/09/30 11:00:18;;;;;;;3.47;1.00;;;17.00;81.30;;;;;;6301091;22;20082;-76
2021/09/30 11:03:02;;;;;;;3.33;0.65;;;16.90;82.40;;;;;;6298632;22;20434;-77
2021/09/30 11:05:29;;;;;;;2.47;0.60;;;16.80;82.40;;;;;;6299581;22;20003;-77
2021/09/30 11:08:24;;;;;;;5.53;1.23;;;16.60;81.50;;;;;;6298489;22;20452;-78
2021/09/30 11:11:06;;;;;;;2.45;0.60;;;16.30;82.90;;;;;;6298892;22;20034;-77
2021/09/30 11:13:57;;;;;;;3.33;1.02;;;16.20;81.90;;;;;;6300035;22;19999;-76
2021/09/30 11:16:39;;;;;;;5.30;0.55;;;16.20;83.10;;;;;;6300155;22;20468;-76
2021/09/30 11:19:05;;;;;;;1.35;0.50;;;16.30;83.30;;;;;;6298557;22;20006;-77
2021/09/30 11:21:34;;;;;;;6.40;1.00;;;16.50;82.60;;;;;;6299031;22;20000;-76
2021/09/30 11:24:08;;;;;;;2.13;0.60;;;16.70;83.00;;;;;;6299526;22;19995;-76
2021/09/30 11:26:53;;;;;;;5.45;0.93;;;17.00;80.60;;;;;;6299815;22;20050;-77
2021/09/30 11:29:25;;;;;;;2.45;0.98;;;17.20;80.50;;;;;;6298810;22;20062;-78
2021/09/30 11:31:53;;;;;;;2.47;0.93;;;17.30;80.40;;;;;;6298958;22;20011;-78
2021/09/30 11:34:22;;;;;;;1.98;1.15;;;17.40;78.50;;;;;;6299774;22;20379;-77
2021/09/30 11:36:49;;;;;;;5.65;0.70;;;17.30;77.60;;;;;;6300630;22;20003;-77
2021/09/30 11:39:15;;;;;;;3.92;0.82;;;17.30;78.60;;;;;;6300561;22;20003;-77
2021/09/30 11:41:43;;;;;;;7.03;0.57;;;17.10;77.70;;;;;;6301123;22;19995;-77
2021/09/30 11:44:17;;;;;;;1.98;0.75;;;16.90;79.30;;;;;;6300924;22;20010;-77
2021/09/30 11:46:48;;;;;;;2.58;0.73;;;16.90;79.40;;;;;;6274249;22;20003;-77
2021/09/30 11:49:14;;;;;;;2.92;0.90;;;16.70;80.40;;;;;;6272909;22;20342;-77
2021/09/30 11:51:41;;;;;;;2.88;0.93;;;16.80;80.40;;;;;;6301145;22;19995;-78
2021/09/30 11:54:11;;;;;;;1.88;0.63;;;16.80;79.50;;;;;;6301864;22;20073;-77
2021/09/30 11:56:43;;;;;;;2.20;0.60;;;16.80;78.80;;;;;;6300544;22;20003;-78
2021/09/30 11:59:09;;;;;;;2.53;0.80;;;16.70;78.80;;;;;;6300618;22;20104;-78
2021/09/30 12:01:37;;;;;;;3.72;0.82;;;16.60;78.60;;;;;;6300007;22;20002;-77
2021/09/30 12:04:04;;;;;;;1.50;0.73;;;16.50;78.40;;;;;;6301722;22;20079;-77
2021/09/30 12:06:56;;;;;;;2.63;0.57;;;16.40;78.60;;;;;;6301379;22;20258;-78
2021/09/30 12:09:21;;;;;;;2.33;0.70;;;16.30;79.00;;;;;;6293246;22;20007;-77
2021/09/30 12:12:00;;;;;;;3.10;0.77;;;16.30;78.20;;;;;;6300283;22;20060;-78
2021/09/30 12:14:35;;;;;;;1.17;0.50;;;16.30;78.60;;;;;;6300821;22;20003;-77
2021/09/30 12:17:05;;;;;;;1.17;0.60;;;16.30;78.00;;;;;;6301363;22;19999;-77
2021/09/30 12:19:45;;;;;;;0.90;0.70;;;16.30;79.00;;;;;;6273021;22;20067;-77
2021/09/30 12:22:17;;;;;;;6.13;1.85;;;16.20;78.90;;;;;;6301149;22;20098;-78
2021/09/30 12:24:48;;;;;;;5.53;1.00;;;16.20;79.30;;;;;;6301217;22;20008;-77
2021/09/30 12:27:14;;;;;;;2.50;0.80;;;16.40;80.50;;;;;;6301623;22;20064;-78
2021/09/30 12:29:45;;;;;;;5.28;1.02;;;16.50;79.40;;;;;;6300143;22;20372;-77
2021/09/30 12:32:17;;;;;;;2.17;0.60;;;16.70;79.30;;;;;;6300396;22;20009;-77
2021/09/30 12:35:04;;;;;;;4.00;1.08;;;17.00;78.70;;;;;;6300993;22;20003;-77
2021/09/30 12:37:32;;;;;;;2.80;0.95;;;17.40;75.40;;;;;;6301141;22;20030;-78
2021/09/30 12:40:00;;;;;;;0.93;0.50;;;17.60;73.90;;;;;;6300259;22;20014;-78
2021/09/30 12:42:28;;;;;;;2.45;0.60;;;17.60;75.40;;;;;;6300916;22;20318;-78
2021/09/30 12:44:54;;;;;;;4.78;0.77;;;17.80;75.10;;;;;;6300920;22;20011;-77
2021/09/30 12:47:32;;;;;;;2.67;0.57;;;18.00;75.60;;;;;;6300823;22;20056;-77
2021/09/30 12:50:04;;;;;;;3.53;0.75;;;18.20;75.70;;;;;;6300095;22;19996;-77
2021/09/30 12:52:30;;;;;;;2.88;0.65;;;18.20;74.20;;;;;;6301507;22;20000;-77
2021/09/30 12:54:56;;;;;;;1.98;0.68;;;18.40;74.30;;;;;;6273458;22;20011;-77
2021/09/30 12:57:30;;;;;;;3.03;1.52;;;18.40;73.10;;;;;;6300993;22;19999;-77
2021/09/30 13:00:08;;;;;;;2.22;0.75;;;18.40;71.70;;;;;;6299842;22;19995;-77
2021/09/30 13:02:33;;;;;;;2.80;0.60;;;18.50;72.00;;;;;;6301108;22;19999;-77
2021/09/30 13:04:59;;;;;;;3.00;0.80;;;18.30;72.00;;;;;;6300855;22;20008;-77
2021/09/30 13:07:25;;;;;;;2.85;0.60;;;18.20;73.10;;;;;;6300833;22;20566;-77
2021/09/30 13:10:02;;;;;;;2.60;0.85;;;18.10;73.00;;;;;;6299787;22;20463;-77
2021/09/30 13:12:28;;;;;;;4.13;0.90;;;18.00;73.80;;;;;;6299672;22;19995;-77
2021/09/30 13:14:56;;;;;;;1.70;0.50;;;17.80;71.30;;;;;;6300709;22;20012;-76
2021/09/30 13:17:24;;;;;;;5.07;0.75;;;17.60;74.10;;;;;;6300494;22;20481;-77
2021/09/30 13:19:58;;;;;;;3.72;0.88;;;17.40;74.40;;;;;;6298959;22;19995;-76
2021/09/30 13:22:29;;;;;;;4.45;0.82;;;17.30;74.20;;;;;;6300153;22;20060;-77
2021/09/30 13:24:55;;;;;;;4.13;0.52;;;17.10;74.40;;;;;;6301282;22;20090;-77
2021/09/30 13:27:26;;;;;;;3.25;1.00;;;16.90;74.70;;;;;;6302727;22;20022;-77
2021/09/30 13:29:53;;;;;;;1.02;0.57;;;16.90;75.30;;;;;;6300799;22;19995;-77
2021/09/30 13:32:21;;;;;;;3.42;0.80;;;16.80;73.60;;;;;;6301917;22;20023;-77
2021/09/30 13:34:47;;;;;;;1.70;0.80;;;16.70;74.50;;;;;;6302417;22;20583;-78
2021/09/30 13:37:13;;;;;;;1.90;0.68;;;16.60;75.30;;;;;;6301858;22;20090;-76
2021/09/30 13:39:39;;;;;;;0.93;0.43;;;16.60;75.00;;;;;;6302236;22;20449;-77
2021/09/30 13:42:06;;;;;;;2.50;0.70;;;16.50;76.60;;;;;;6301439;22;20014;-77
2021/09/30 13:44:32;;;;;;;2.63;1.15;;;16.50;76.20;;;;;;6302775;22;20445;-77
2021/09/30 13:46:57;;;;;;;2.25;0.70;;;16.50;76.90;;;;;;6302326;22;20027;-77
2021/09/30 13:49:23;;;;;;;7.07;0.73;;;16.50;75.40;;;;;;6301456;22;19999;-78
2021/09/30 13:51:48;;;;;;;2.97;0.50;;;16.50;75.50;;;;;;6301908;22;20049;-77
2021/09/30 13:54:13;;;;;;;2.40;0.60;;;16.60;74.80;;;;;;6302737;22;20015;-78
2021/09/30 13:56:39;;;;;;;1.38;0.80;;;16.60;74.80;;;;;;6302871;22;20445;-77
2021/09/30 13:59:04;;;;;;;2.55;0.60;;;16.70;73.60;;;;;;6301726;22;20011;-78
2021/09/30 14:01:30;;;;;;;1.85;0.60;;;16.80;73.70;;;;;;6301154;22;20418;-78
2021/09/30 14:03:55;;;;;;;2.27;0.70;;;16.80;73.90;;;;;;6302853;22;20029;-79
2021/09/30 14:06:22;;;;;;;4.15;1.00;;;16.90;74.30;;;;;;6274464;22;20432;-77
2021/09/30 14:08:49;;;;;;;4.70;1.40;;;17.00;75.20;;;;;;6301745;22;20068;-78
2021/09/30 14:11:16;;;;;;;4.30;0.55;;;17.20;71.50;;;;;;6301556;22;19998;-78
2021/09/30 14:13:43;;;;;;;5.55;0.75;;;17.30;72.10;;;;;;6274647;22;20014;-78
2021/09/30 14:16:09;;;;;;;3.38;0.68;;;17.30;71.80;;;;;;6302793;22;20006;-77
2021/09/30 14:18:35;;;;;;;4.32;0.60;;;17.30;72.00;;;;;;6274056;22;20011;-78
2021/09/30 14:21:01;;;;;;;2.55;0.55;;;17.20;72.30;;;;;;6301724;22;19999;-78
2021/09/30 14:23:26;;;;;;;4.38;1.05;;;17.10;73.60;;;;;;6302605;22;20006;-78
2021/09/30 14:25:53;;;;;;;2.75;0.65;;;17.20;72.50;;;;;;6302294;22;20011;-78
2021/09/30 14:28:20;;;;;;;1.33;0.50;;;17.30;72.70;;;;;;6301903;22;20564;-78
2021/09/30 14:30:45;;;;;;;2.95;1.00;;;17.30;71.40;;;;;;6301542;22;20006;-77
2021/09/30 14:33:11;;;;;;;2.25;0.60;;;17.20;70.90;;;;;;6303005;22;20598;-77
2021/09/30 14:35:37;;;;;;;0.98;0.57;;;17.20;71.20;;;;;;6302548;22;20116;-77
2021/09/30 14:38:04;;;;;;;1.27;0.77;;;17.10;71.40;;;;;;6301312;22;20354;-78
2021/09/30 14:40:30;;;;;;;3.38;0.85;;;17.10;72.00;;;;;;6274226;22;20014;-77
2021/09/30 14:42:55;;;;;;;2.05;0.63;;;17.10;70.10;;;;;;6301624;22;20086;-77
2021/09/30 14:45:21;;;;;;;2.47;0.75;;;17.20;72.20;;;;;;6302619;22;20023;-77
2021/09/30 14:47:47;;;;;;;1.02;0.50;;;17.30;71.20;;;;;;6299425;22;20011;-77
2021/09/30 14:50:13;;;;;;;1.00;0.50;;;17.30;70.90;;;;;;6301968;22;20007;-77
2021/09/30 14:52:38;;;;;;;3.13;0.50;;;17.40;70.50;;;;;;6301381;22;19996;-77
2021/09/30 14:55:04;;;;;;;3.30;0.82;;;17.40;69.10;;;;;;6300841;22;20039;-78
2021/09/30 14:57:30;;;;;;;1.02;0.50;;;17.40;70.90;;;;;;6301795;22;20066;-77
2021/09/30 14:59:56;;;;;;;1.90;0.50;;;17.40;69.10;;;;;;6300674;22;20047;-78
2021/09/30 15:02:21;;;;;;;2.35;0.50;;;17.30;69.00;;;;;;6303237;22;20318;-77
2021/09/30 15:04:47;;;;;;;2.05;0.60;;;17.30;69.20;;;;;;6303286;22;20058;-79
2021/09/30 15:07:12;;;;;;;2.42;0.65;;;17.20;68.90;;;;;;6303063;22;20010;-77
2021/09/30 15:09:38;;;;;;;1.27;0.80;;;17.10;68.60;;;;;;6302848;22;20062;-76
2021/09/30 15:12:04;;;;;;;2.80;0.60;;;17.00;69.40;;;;;;6302649;22;20007;-76
2021/09/30 15:14:29;;;;;;;3.72;1.77;;;17.10;71.00;;;;;;6303430;22;20003;-76